Time;durP1;ratioP1;P1;durP2;ratioP2;P2;SDS_P1;SDS_P2;PMS_P1;PMS_P2;Temp;Humidity;BMP_temperature;BMP_pressure;BME280_temperature;BME280_humidity;BME280_pressure;Samples;Min_cycle;Max_cycle;Signal;HPM_P1;HPM_P2
2022/07/01 00:03:27;;;;;;;0.20;0.00;;;22.10;99.90;;;;;;21242624;28;20213;-70
2022/07/01 00:13:31;;;;;;;0.20;0.00;;;22.20;99.90;;;;;;21252974;28;20211;-71
2022/07/01 00:23:36;;;;;;;0.20;0.00;;;22.20;99.90;;;;;;21254706;28;20223;-72
2022/07/01 00:33:40;;;;;;;0.20;0.00;;;22.10;99.90;;;;;;21250390;28;20215;-73
2022/07/01 00:43:45;;;;;;;0.20;0.00;;;22.10;99.90;;;;;;21191769;28;20198;-70
2022/07/01 00:53:59;;;;;;;0.20;0.00;;;22.10;99.90;;;;;;21253126;28;20221;-71
2022/07/01 01:04:04;;;;;;;0.20;0.00;;;22.40;99.90;;;;;;21252910;28;20255;-72
2022/07/01 01:14:08;;;;;;;0.20;0.00;;;22.60;99.90;;;;;;21250706;28;20211;-72
2022/07/01 01:24:13;;;;;;;0.20;0.00;;;22.60;99.90;;;;;;21252528;28;20299;-70
2022/07/01 01:34:17;;;;;;;0.20;0.00;;;22.40;99.90;;;;;;21237210;28;20234;-70
2022/07/01 01:44:23;;;;;;;0.20;0.00;;;22.20;99.90;;;;;;21165468;28;20268;-72
2022/07/01 01:54:27;;;;;;;0.20;0.00;;;22.20;99.90;;;;;;21165110;28;20283;-71
2022/07/01 02:04:32;;;;;;;0.20;0.10;;;22.30;99.90;;;;;;21165074;28;20207;-72
2022/07/01 02:14:36;;;;;;;0.20;0.00;;;22.40;99.90;;;;;;21164071;28;20242;-71
2022/07/01 02:24:43;;;;;;;0.20;0.00;;;22.50;99.90;;;;;;21162012;28;20861;-71
2022/07/01 02:34:47;;;;;;;0.20;0.00;;;22.80;99.90;;;;;;21161988;28;20223;-71
2022/07/01 02:44:52;;;;;;;0.20;0.10;;;22.90;99.90;;;;;;21160197;28;20204;-71
2022/07/01 02:54:57;;;;;;;0.20;0.00;;;22.80;99.90;;;;;;21161052;28;21066;-72
2022/07/01 03:05:02;;;;;;;0.20;0.10;;;22.80;99.90;;;;;;21159461;28;20307;-71
2022/07/01 03:15:08;;;;;;;0.20;0.00;;;22.70;99.90;;;;;;21159594;28;20283;-71
2022/07/01 03:25:13;;;;;;;0.20;0.00;;;22.50;99.90;;;;;;21159069;28;21051;-72
2022/07/01 03:45:40;;;;;;;0.20;0.00;;;22.20;99.90;;;;;;21157007;28;20291;-71
2022/07/01 03:55:44;;;;;;;0.20;0.00;;;22.00;99.90;;;;;;21156350;28;20204;-72
2022/07/01 04:05:49;;;;;;;0.20;0.00;;;21.90;99.90;;;;;;21155542;28;20227;-71
2022/07/01 04:15:53;;;;;;;0.20;0.00;;;21.90;99.90;;;;;;21154037;28;20287;-71
2022/07/01 04:25:59;;;;;;;0.20;0.00;;;21.80;99.90;;;;;;21154463;28;20296;-71
2022/07/01 04:36:22;;;;;;;0.20;0.00;;;21.90;99.90;;;;;;21153719;28;20199;-72
2022/07/01 04:46:27;;;;;;;0.20;0.00;;;21.80;99.90;;;;;;21153059;28;20253;-72
2022/07/01 04:56:32;;;;;;;0.20;0.00;;;22.10;99.90;;;;;;21167291;28;20214;-71
2022/07/01 05:06:38;;;;;;;0.20;0.00;;;22.10;99.90;;;;;;21168049;28;20259;-71
2022/07/01 05:16:42;;;;;;;0.20;0.00;;;22.50;99.90;;;;;;21167168;28;20216;-72
2022/07/01 05:26:47;;;;;;;0.20;0.00;;;22.70;99.90;;;;;;21164146;28;20219;-72
2022/07/01 05:36:51;;;;;;;0.20;0.10;;;22.70;99.90;;;;;;21164159;28;20223;-71
2022/07/01 05:46:56;;;;;;;0.20;0.00;;;22.70;99.90;;;;;;21164583;28;20247;-67
2022/07/01 05:57:00;;;;;;;0.20;0.00;;;22.90;99.90;;;;;;21161355;28;20204;-72
2022/07/01 06:07:11;;;;;;;0.20;0.00;;;23.30;99.90;;;;;;21161101;28;20224;-72
2022/07/01 06:17:15;;;;;;;0.20;0.00;;;23.40;99.90;;;;;;21160920;28;20240;-71
2022/07/01 06:27:20;;;;;;;0.20;0.00;;;23.40;99.90;;;;;;21160703;28;20258;-71
2022/07/01 06:37:25;;;;;;;0.20;0.10;;;23.60;99.90;;;;;;21159492;28;20253;-72
2022/07/01 06:47:30;;;;;;;0.20;0.00;;;23.60;99.90;;;;;;21158437;28;20279;-71
2022/07/01 06:57:34;;;;;;;0.20;0.00;;;23.40;99.90;;;;;;21156098;28;20295;-71
2022/07/01 07:07:39;;;;;;;0.20;0.08;;;23.30;99.90;;;;;;21153346;28;21224;-70
2022/07/01 07:17:43;;;;;;;0.20;0.00;;;23.40;99.90;;;;;;21154184;28;20234;-66
2022/07/01 07:27:48;;;;;;;0.20;0.00;;;23.60;99.90;;;;;;21153518;28;20363;-69
2022/07/01 07:37:52;;;;;;;0.20;0.10;;;23.10;99.90;;;;;;21152059;28;21149;-70
2022/07/01 07:47:57;;;;;;;0.20;0.00;;;23.40;99.90;;;;;;21133471;28;20254;-71
2022/07/01 07:58:01;;;;;;;0.20;0.00;;;23.70;99.90;;;;;;21154060;28;20215;-71
2022/07/01 08:08:06;;;;;;;0.20;0.10;;;23.70;99.90;;;;;;21151373;28;20288;-71
2022/07/01 08:18:10;;;;;;;0.20;0.10;;;23.90;99.90;;;;;;21150835;28;20240;-71
2022/07/01 08:28:16;;;;;;;0.20;0.00;;;24.10;99.90;;;;;;21162837;28;20407;-70
2022/07/01 08:38:19;;;;;;;0.20;0.05;;;24.20;99.90;;;;;;21166546;28;20196;-70
2022/07/01 08:48:27;;;;;;;0.20;0.00;;;24.20;99.90;;;;;;21209302;28;20211;-73
2022/07/01 08:58:32;;;;;;;0.20;0.10;;;24.20;99.90;;;;;;21248902;28;20191;-71
2022/07/01 09:08:37;;;;;;;0.20;0.00;;;24.20;99.90;;;;;;21252395;28;20284;-72
2022/07/01 09:18:41;;;;;;;0.20;0.00;;;24.00;99.90;;;;;;21249488;28;20234;-72
2022/07/01 09:28:53;;;;;;;0.20;0.00;;;24.00;99.90;;;;;;21248028;28;20222;-70
2022/07/01 09:38:57;;;;;;;0.20;0.00;;;24.20;99.90;;;;;;21193208;28;20191;-71
2022/07/01 09:49:22;;;;;;;0.20;0.10;;;24.30;99.90;;;;;;21155360;28;20283;-70
2022/07/01 09:59:26;;;;;;;0.20;0.00;;;24.70;99.90;;;;;;21159126;28;20207;-71
2022/07/01 10:09:50;;;;;;;0.20;0.00;;;25.00;99.90;;;;;;21159577;28;21199;-72
2022/07/01 10:19:56;;;;;;;0.20;0.10;;;25.30;99.90;;;;;;21158436;28;20252;-70
2022/07/01 10:30:16;;;;;;;0.20;0.10;;;25.50;99.90;;;;;;21156818;28;20231;-71
2022/07/01 10:40:40;;;;;;;0.20;0.10;;;25.50;99.90;;;;;;21160314;28;20188;-71
2022/07/01 10:50:47;;;;;;;0.20;0.00;;;25.80;99.90;;;;;;21155923;28;20238;-71
2022/07/01 11:00:51;;;;;;;0.20;0.10;;;26.10;99.90;;;;;;21157294;28;20245;-70
2022/07/01 11:11:01;;;;;;;0.20;0.10;;;26.30;99.90;;;;;;21155858;28;20220;-70
2022/07/01 11:21:07;;;;;;;0.20;0.00;;;26.50;99.90;;;;;;21154799;28;20236;-70
2022/07/01 11:31:12;;;;;;;0.20;0.00;;;26.90;99.90;;;;;;21153800;28;20208;-69
2022/07/01 11:41:21;;;;;;;0.20;0.00;;;28.20;99.90;;;;;;21155534;28;20188;-70
2022/07/01 11:51:27;;;;;;;0.20;0.00;;;28.70;99.90;;;;;;21151900;28;20250;-71
2022/07/01 12:01:33;;;;;;;0.20;0.00;;;28.90;99.90;;;;;;21148152;28;20191;-70
2022/07/01 12:11:38;;;;;;;0.20;0.00;;;29.00;99.90;;;;;;21149337;28;20279;-70
2022/07/01 12:21:53;;;;;;;0.20;0.00;;;28.60;99.90;;;;;;21152229;28;20248;-70
2022/07/01 12:32:00;;;;;;;0.20;0.10;;;29.60;99.90;;;;;;21150657;28;20246;-70
2022/07/01 12:42:04;;;;;;;0.20;0.10;;;29.80;99.90;;;;;;21152493;28;20260;-70
2022/07/01 12:52:24;;;;;;;0.20;0.00;;;29.20;99.90;;;;;;21153633;28;20224;-71
2022/07/01 13:02:28;;;;;;;0.20;0.00;;;30.40;99.90;;;;;;21152211;28;20250;-70
2022/07/01 13:12:33;;;;;;;0.20;0.00;;;31.10;99.90;;;;;;21139789;28;20243;-70
2022/07/01 13:22:37;;;;;;;0.20;0.00;;;31.30;99.90;;;;;;21164993;28;20291;-70
2022/07/01 13:32:43;;;;;;;0.20;0.00;;;30.90;99.90;;;;;;21163632;28;20224;-69
2022/07/01 13:42:47;;;;;;;0.20;0.10;;;30.30;99.90;;;;;;21165354;28;20212;-70
2022/07/01 13:52:52;;;;;;;0.20;0.10;;;29.50;99.90;;;;;;21162178;28;20339;-69
2022/07/01 14:03:00;;;;;;;0.20;0.00;;;30.70;99.90;;;;;;21160923;28;20204;-70
2022/07/01 14:13:05;;;;;;;0.20;0.10;;;29.50;99.90;;;;;;21140799;28;20243;-71
2022/07/01 14:23:09;;;;;;;0.20;0.00;;;29.90;99.90;;;;;;21158241;28;20219;-72
2022/07/01 14:33:15;;;;;;;0.20;0.10;;;30.30;99.90;;;;;;21160391;28;20231;-71
2022/07/01 14:43:19;;;;;;;0.20;0.03;;;30.00;99.90;;;;;;21238118;28;20259;-72
2022/07/01 14:53:24;;;;;;;0.20;0.00;;;31.30;99.90;;;;;;21236811;28;20230;-71
2022/07/01 15:03:28;;;;;;;0.20;0.00;;;31.30;99.90;;;;;;21237162;27;20222;-69
2022/07/01 15:13:36;;;;;;;0.20;0.10;;;31.80;99.90;;;;;;21236235;28;20242;-72
2022/07/01 15:23:39;;;;;;;0.20;0.10;;;31.70;99.90;;;;;;21234446;28;20310;-73
2022/07/01 15:33:45;;;;;;;0.20;0.00;;;30.30;99.90;;;;;;21234617;28;20257;-72
2022/07/01 15:43:55;;;;;;;0.20;0.00;;;31.20;99.90;;;;;;21235744;28;20220;-71
2022/07/01 15:54:01;;;;;;;0.20;0.00;;;31.30;99.90;;;;;;21234028;28;20218;-70
2022/07/01 16:04:05;;;;;;;0.20;0.00;;;30.70;99.90;;;;;;21186084;28;20201;-69
2022/07/01 16:14:12;;;;;;;0.20;0.00;;;30.70;99.90;;;;;;21160808;28;20212;-70
2022/07/01 16:24:16;;;;;;;0.20;0.00;;;30.20;99.90;;;;;;21210550;28;20226;-72
2022/07/01 16:34:21;;;;;;;0.20;0.00;;;29.70;99.90;;;;;;21227997;28;21106;-73
2022/07/01 16:44:31;;;;;;;0.20;0.10;;;29.70;99.90;;;;;;21228737;28;20218;-70
2022/07/01 16:54:37;;;;;;;0.20;0.00;;;29.20;99.90;;;;;;21244735;28;20342;-71
2022/07/01 17:04:42;;;;;;;0.20;0.00;;;29.10;99.90;;;;;;21243752;28;20179;-69
2022/07/01 17:14:49;;;;;;;0.20;0.00;;;29.20;99.90;;;;;;21238400;28;20235;-70
2022/07/01 17:25:01;;;;;;;0.20;0.10;;;30.00;99.90;;;;;;21240951;28;20223;-69
2022/07/01 17:35:07;;;;;;;0.20;0.00;;;29.70;99.90;;;;;;21227236;28;20279;-70
2022/07/01 17:45:11;;;;;;;0.20;0.10;;;30.00;99.90;;;;;;21240016;28;20188;-69
2022/07/01 17:55:18;;;;;;;0.20;0.00;;;29.50;99.90;;;;;;21247594;28;20253;-69
2022/07/01 18:05:22;;;;;;;0.20;0.00;;;29.30;99.90;;;;;;21249751;28;20211;-73
2022/07/01 18:15:33;;;;;;;0.20;0.00;;;29.20;99.90;;;;;;21250474;28;20286;-71
2022/07/01 18:25:37;;;;;;;0.20;0.00;;;29.00;99.90;;;;;;21250550;28;20202;-69
2022/07/01 18:35:42;;;;;;;0.20;0.10;;;28.60;99.90;;;;;;21240035;28;20231;-70
2022/07/01 18:45:46;;;;;;;0.20;0.00;;;28.30;99.90;;;;;;21247586;28;20187;-69
2022/07/01 18:55:51;;;;;;;0.20;0.00;;;27.90;99.90;;;;;;21246912;28;20242;-69
2022/07/01 19:05:55;;;;;;;0.20;0.00;;;26.80;99.90;;;;;;21244010;28;20191;-70
2022/07/01 19:16:00;;;;;;;0.20;0.00;;;25.10;99.90;;;;;;21242716;28;20334;-71
2022/07/01 19:26:04;;;;;;;0.20;0.10;;;24.50;99.90;;;;;;21226880;28;20196;-70
2022/07/01 19:36:10;;;;;;;0.20;0.05;;;24.20;99.90;;;;;;21197609;28;20212;-71
2022/07/01 19:46:13;;;;;;;0.20;0.00;;;24.00;99.90;;;;;;21188974;28;20214;-71
2022/07/01 19:56:19;;;;;;;0.20;0.00;;;23.90;99.90;;;;;;21242290;28;20230;-71
2022/07/01 20:06:23;;;;;;;0.20;0.00;;;23.80;99.90;;;;;;21242945;28;20214;-71
2022/07/01 20:16:28;;;;;;;0.20;0.00;;;23.80;99.90;;;;;;21245936;28;20232;-72
2022/07/01 20:26:32;;;;;;;0.20;0.00;;;23.70;99.90;;;;;;21261495;28;20188;-73
2022/07/01 20:36:37;;;;;;;0.20;0.00;;;23.20;99.90;;;;;;21260515;28;20215;-72
2022/07/01 20:46:41;;;;;;;0.20;0.00;;;22.70;99.90;;;;;;21260957;28;20195;-73
2022/07/01 20:56:46;;;;;;;0.20;0.10;;;22.50;99.90;;;;;;21261872;28;20286;-70
2022/07/01 21:06:50;;;;;;;0.20;0.00;;;22.20;99.90;;;;;;21259943;28;20195;-72
2022/07/01 21:16:56;;;;;;;0.20;0.10;;;22.00;99.90;;;;;;21259211;28;20238;-71
2022/07/01 21:26:59;;;;;;;0.20;0.10;;;22.20;99.90;;;;;;21256614;28;20186;-72
2022/07/01 21:37:05;;;;;;;0.20;0.00;;;21.80;99.90;;;;;;21254245;28;20234;-72
2022/07/01 21:47:11;;;;;;;0.20;0.00;;;21.90;99.90;;;;;;21254174;28;20179;-72
2022/07/01 21:57:18;;;;;;;0.20;0.10;;;21.70;99.90;;;;;;21252880;28;20219;-72
2022/07/01 22:07:22;;;;;;;0.20;0.00;;;21.70;99.90;;;;;;21254349;28;20214;-72
2022/07/01 22:17:30;;;;;;;0.20;0.10;;;21.60;99.90;;;;;;21255927;28;20239;-73
2022/07/01 22:27:36;;;;;;;0.20;0.00;;;21.50;99.90;;;;;;21236026;28;20203;-72
2022/07/01 22:37:43;;;;;;;0.20;0.00;;;21.50;99.90;;;;;;21250129;28;20245;-73
2022/07/01 22:48:00;;;;;;;0.20;0.00;;;21.40;99.90;;;;;;21250303;28;20195;-73
2022/07/01 22:58:14;;;;;;;0.20;0.00;;;21.30;99.90;;;;;;21251744;28;20214;-71
2022/07/01 23:08:25;;;;;;;0.20;0.00;;;21.30;99.90;;;;;;21251113;28;20221;-72
2022/07/01 23:18:31;;;;;;;0.20;0.00;;;21.40;99.90;;;;;;21250792;28;20622;-73
2022/07/01 23:28:35;;;;;;;0.20;0.07;;;21.40;99.90;;;;;;21250322;28;20171;-72
2022/07/01 23:38:43;;;;;;;0.20;0.10;;;21.40;99.90;;;;;;21248334;28;20183;-72
2022/07/01 23:48:48;;;;;;;0.20;0.00;;;21.40;99.90;;;;;;21250022;28;20191;-71
2022/07/01 23:58:53;;;;;;;0.20;0.00;;;21.40;99.90;;;;;;21248382;28;20207;-71
